sensor_id;sensor_type;location;lat;lon;timestamp;temperature;humidity
22738;DHT22;11536;50.860;4.286;2022-09-16T00:01:17;16.00;99.90
22738;DHT22;11536;50.860;4.286;2022-09-16T00:03:43;16.00;99.90
22738;DHT22;11536;50.860;4.286;2022-09-16T00:06:28;15.90;99.90
22738;DHT22;11536;50.860;4.286;2022-09-16T00:08:56;15.90;99.90
22738;DHT22;11536;50.860;4.286;2022-09-16T00:11:23;15.80;99.90
22738;DHT22;11536;50.860;4.286;2022-09-16T00:13:49;15.80;99.90
22738;DHT22;11536;50.860;4.286;2022-09-16T00:16:23;15.80;99.90
22738;DHT22;11536;50.860;4.286;2022-09-16T00:18:57;15.80;99.90
22738;DHT22;11536;50.860;4.286;2022-09-16T00:21:23;15.80;99.90
22738;DHT22;11536;50.860;4.286;2022-09-16T00:23:49;15.70;99.90
22738;DHT22;11536;50.860;4.286;2022-09-16T00:26:15;15.70;99.90
22738;DHT22;11536;50.860;4.286;2022-09-16T00:28:40;15.70;99.90
22738;DHT22;11536;50.860;4.286;2022-09-16T00:31:06;15.60;99.90
22738;DHT22;11536;50.860;4.286;2022-09-16T00:33:32;15.60;99.90
22738;DHT22;11536;50.860;4.286;2022-09-16T00:36:23;15.60;99.90
22738;DHT22;11536;50.860;4.286;2022-09-16T00:38:50;15.60;99.90
22738;DHT22;11536;50.860;4.286;2022-09-16T00:41:20;15.50;99.90
22738;DHT22;11536;50.860;4.286;2022-09-16T00:43:51;15.50;99.90
22738;DHT22;11536;50.860;4.286;2022-09-16T00:46:22;15.50;99.90
22738;DHT22;11536;50.860;4.286;2022-09-16T00:48:50;15.40;99.90
22738;DHT22;11536;50.860;4.286;2022-09-16T00:51:22;15.40;99.90
22738;DHT22;11536;50.860;4.286;2022-09-16T00:53:52;15.40;99.90
22738;DHT22;11536;50.860;4.286;2022-09-16T00:56:22;15.40;99.90
22738;DHT22;11536;50.860;4.286;2022-09-16T00:58:58;15.40;99.90
22738;DHT22;11536;50.860;4.286;2022-09-16T01:01:29;15.40;99.90
22738;DHT22;11536;50.860;4.286;2022-09-16T01:04:01;15.30;99.90
22738;DHT22;11536;50.860;4.286;2022-09-16T01:06:28;15.30;99.90
22738;DHT22;11536;50.860;4.286;2022-09-16T01:08:55;15.30;99.90
22738;DHT22;11536;50.860;4.286;2022-09-16T01:11:22;15.30;99.90
22738;DHT22;11536;50.860;4.286;2022-09-16T01:13:48;15.30;99.90
22738;DHT22;11536;50.860;4.286;2022-09-16T01:19:08;15.30;99.90
22738;DHT22;11536;50.860;4.286;2022-09-16T01:21:44;15.30;99.90
22738;DHT22;11536;50.860;4.286;2022-09-16T01:24:17;15.20;99.90
22738;DHT22;11536;50.860;4.286;2022-09-16T01:38:15;15.10;99.90
22738;DHT22;11536;50.860;4.286;2022-09-16T01:41:06;15.10;99.90
22738;DHT22;11536;50.860;4.286;2022-09-16T01:46:22;15.00;99.90
22738;DHT22;11536;50.860;4.286;2022-09-16T01:49:06;15.00;99.90
22738;DHT22;11536;50.860;4.286;2022-09-16T01:54:40;15.00;99.90
22738;DHT22;11536;50.860;4.286;2022-09-16T01:57:17;15.00;99.90
22738;DHT22;11536;50.860;4.286;2022-09-16T01:59:56;15.00;99.90
22738;DHT22;11536;50.860;4.286;2022-09-16T02:02:39;15.00;99.90
22738;DHT22;11536;50.860;4.286;2022-09-16T02:05:31;15.00;99.90
22738;DHT22;11536;50.860;4.286;2022-09-16T02:08:09;15.00;99.90
22738;DHT22;11536;50.860;4.286;2022-09-16T02:10:52;15.00;99.90
22738;DHT22;11536;50.860;4.286;2022-09-16T02:13:25;15.00;99.90
22738;DHT22;11536;50.860;4.286;2022-09-16T02:15:55;15.00;99.90
22738;DHT22;11536;50.860;4.286;2022-09-16T02:18:28;15.00;99.90
22738;DHT22;11536;50.860;4.286;2022-09-16T02:20:55;15.00;99.90
22738;DHT22;11536;50.860;4.286;2022-09-16T02:23:26;15.00;99.90
22738;DHT22;11536;50.860;4.286;2022-09-16T02:25:54;15.00;99.90
22738;DHT22;11536;50.860;4.286;2022-09-16T02:28:31;15.00;99.90
22738;DHT22;11536;50.860;4.286;2022-09-16T02:31:01;15.10;99.90
22738;DHT22;11536;50.860;4.286;2022-09-16T02:33:34;15.00;99.90
22738;DHT22;11536;50.860;4.286;2022-09-16T02:36:02;15.00;99.90
22738;DHT22;11536;50.860;4.286;2022-09-16T02:38:35;15.00;99.90
22738;DHT22;11536;50.860;4.286;2022-09-16T02:41:04;15.00;99.90
22738;DHT22;11536;50.860;4.286;2022-09-16T02:43:31;15.00;99.90
22738;DHT22;11536;50.860;4.286;2022-09-16T02:54:38;15.00;99.90
22738;DHT22;11536;50.860;4.286;2022-09-16T02:57:08;15.00;99.90
22738;DHT22;11536;50.860;4.286;2022-09-16T02:59:34;15.00;99.90
22738;DHT22;11536;50.860;4.286;2022-09-16T03:02:00;15.10;99.90
22738;DHT22;11536;50.860;4.286;2022-09-16T03:04:27;15.10;99.90
22738;DHT22;11536;50.860;4.286;2022-09-16T03:06:52;15.00;99.90
22738;DHT22;11536;50.860;4.286;2022-09-16T03:09:18;15.10;99.90
22738;DHT22;11536;50.860;4.286;2022-09-16T03:12:09;15.00;99.90
22738;DHT22;11536;50.860;4.286;2022-09-16T03:23:48;15.00;99.90
22738;DHT22;11536;50.860;4.286;2022-09-16T03:26:21;15.00;99.90
22738;DHT22;11536;50.860;4.286;2022-09-16T03:32:06;15.00;99.90
22738;DHT22;11536;50.860;4.286;2022-09-16T03:34:53;15.00;99.90
22738;DHT22;11536;50.860;4.286;2022-09-16T03:37:21;15.00;99.90
22738;DHT22;11536;50.860;4.286;2022-09-16T03:39:52;15.00;99.90
22738;DHT22;11536;50.860;4.286;2022-09-16T03:42:20;15.00;99.90
22738;DHT22;11536;50.860;4.286;2022-09-16T03:44:46;14.90;99.90
22738;DHT22;11536;50.860;4.286;2022-09-16T03:47:12;14.90;99.90
22738;DHT22;11536;50.860;4.286;2022-09-16T03:49:38;14.90;99.90
22738;DHT22;11536;50.860;4.286;2022-09-16T03:52:04;15.00;99.90
22738;DHT22;11536;50.860;4.286;2022-09-16T03:54:30;15.00;99.90
22738;DHT22;11536;50.860;4.286;2022-09-16T03:56:56;14.90;99.90
22738;DHT22;11536;50.860;4.286;2022-09-16T03:59:22;14.90;99.90
22738;DHT22;11536;50.860;4.286;2022-09-16T04:01:48;14.90;99.90
22738;DHT22;11536;50.860;4.286;2022-09-16T04:04:14;14.90;99.90
22738;DHT22;11536;50.860;4.286;2022-09-16T04:06:40;14.90;99.90
22738;DHT22;11536;50.860;4.286;2022-09-16T04:09:05;14.80;99.90
22738;DHT22;11536;50.860;4.286;2022-09-16T04:11:33;14.80;99.90
22738;DHT22;11536;50.860;4.286;2022-09-16T04:13:59;14.80;99.90
22738;DHT22;11536;50.860;4.286;2022-09-16T04:16:25;14.80;99.90
22738;DHT22;11536;50.860;4.286;2022-09-16T04:18:52;14.80;99.90
22738;DHT22;11536;50.860;4.286;2022-09-16T04:21:18;14.80;99.90
22738;DHT22;11536;50.860;4.286;2022-09-16T04:23:44;14.80;99.90
22738;DHT22;11536;50.860;4.286;2022-09-16T04:26:10;14.80;99.90
22738;DHT22;11536;50.860;4.286;2022-09-16T04:28:36;14.90;99.90
22738;DHT22;11536;50.860;4.286;2022-09-16T04:31:08;14.80;99.90
22738;DHT22;11536;50.860;4.286;2022-09-16T04:33:34;14.80;99.90
22738;DHT22;11536;50.860;4.286;2022-09-16T04:36:20;14.80;99.90
22738;DHT22;11536;50.860;4.286;2022-09-16T04:38:47;14.80;99.90
22738;DHT22;11536;50.860;4.286;2022-09-16T04:41:20;14.80;99.90
22738;DHT22;11536;50.860;4.286;2022-09-16T04:43:50;14.70;99.90
22738;DHT22;11536;50.860;4.286;2022-09-16T04:46:17;14.70;99.90
22738;DHT22;11536;50.860;4.286;2022-09-16T04:48:49;14.70;99.90
22738;DHT22;11536;50.860;4.286;2022-09-16T04:51:16;14.70;99.90
22738;DHT22;11536;50.860;4.286;2022-09-16T04:53:44;14.70;99.90
22738;DHT22;11536;50.860;4.286;2022-09-16T04:56:17;14.60;99.90
22738;DHT22;11536;50.860;4.286;2022-09-16T04:58:48;14.60;99.90
22738;DHT22;11536;50.860;4.286;2022-09-16T05:01:25;14.60;99.90
22738;DHT22;11536;50.860;4.286;2022-09-16T05:03:52;14.60;99.90
22738;DHT22;11536;50.860;4.286;2022-09-16T05:06:23;14.60;99.90
22738;DHT22;11536;50.860;4.286;2022-09-16T05:08:51;14.60;99.90
22738;DHT22;11536;50.860;4.286;2022-09-16T05:11:20;14.60;99.90
22738;DHT22;11536;50.860;4.286;2022-09-16T05:13:45;14.60;99.90
22738;DHT22;11536;50.860;4.286;2022-09-16T05:16:14;14.60;99.90
22738;DHT22;11536;50.860;4.286;2022-09-16T05:18:40;14.50;99.90
22738;DHT22;11536;50.860;4.286;2022-09-16T05:21:09;14.50;99.90
22738;DHT22;11536;50.860;4.286;2022-09-16T05:23:35;14.50;99.90
22738;DHT22;11536;50.860;4.286;2022-09-16T05:26:07;14.60;99.90
22738;DHT22;11536;50.860;4.286;2022-09-16T05:28:34;14.50;99.90
22738;DHT22;11536;50.860;4.286;2022-09-16T05:31:23;14.50;99.90
22738;DHT22;11536;50.860;4.286;2022-09-16T05:33:56;14.50;99.90
22738;DHT22;11536;50.860;4.286;2022-09-16T05:36:22;14.50;99.90
22738;DHT22;11536;50.860;4.286;2022-09-16T05:38:48;14.50;99.90
22738;DHT22;11536;50.860;4.286;2022-09-16T05:41:14;14.50;99.90
22738;DHT22;11536;50.860;4.286;2022-09-16T05:43:40;14.50;99.90
22738;DHT22;11536;50.860;4.286;2022-09-16T05:46:06;14.50;99.90
22738;DHT22;11536;50.860;4.286;2022-09-16T05:48:33;14.50;99.90
22738;DHT22;11536;50.860;4.286;2022-09-16T05:51:04;14.50;99.90
22738;DHT22;11536;50.860;4.286;2022-09-16T05:53:32;14.40;99.90
22738;DHT22;11536;50.860;4.286;2022-09-16T05:56:06;14.40;99.90
22738;DHT22;11536;50.860;4.286;2022-09-16T05:58:34;14.40;99.90
22738;DHT22;11536;50.860;4.286;2022-09-16T06:01:14;14.40;99.90
22738;DHT22;11536;50.860;4.286;2022-09-16T06:03:41;14.40;99.90
22738;DHT22;11536;50.860;4.286;2022-09-16T06:06:31;14.40;99.90
22738;DHT22;11536;50.860;4.286;2022-09-16T06:08:59;14.40;99.90
22738;DHT22;11536;50.860;4.286;2022-09-16T06:11:27;14.40;99.90
22738;DHT22;11536;50.860;4.286;2022-09-16T06:13:54;14.40;99.90
22738;DHT22;11536;50.860;4.286;2022-09-16T06:16:21;14.40;99.90
22738;DHT22;11536;50.860;4.286;2022-09-16T06:18:47;14.40;99.90
22738;DHT22;11536;50.860;4.286;2022-09-16T06:21:12;14.40;99.90
22738;DHT22;11536;50.860;4.286;2022-09-16T06:23:38;14.50;99.90
22738;DHT22;11536;50.860;4.286;2022-09-16T06:26:10;14.50;99.90
22738;DHT22;11536;50.860;4.286;2022-09-16T06:28:37;14.50;99.90
22738;DHT22;11536;50.860;4.286;2022-09-16T06:31:18;14.50;99.90
22738;DHT22;11536;50.860;4.286;2022-09-16T06:33:44;14.50;99.90
22738;DHT22;11536;50.860;4.286;2022-09-16T06:36:15;14.50;99.90
22738;DHT22;11536;50.860;4.286;2022-09-16T06:38:42;14.50;99.90
22738;DHT22;11536;50.860;4.286;2022-09-16T06:41:09;14.50;99.90
22738;DHT22;11536;50.860;4.286;2022-09-16T06:43:36;14.50;99.90
22738;DHT22;11536;50.860;4.286;2022-09-16T06:46:07;14.50;99.90
22738;DHT22;11536;50.860;4.286;2022-09-16T06:48:44;14.50;99.90
22738;DHT22;11536;50.860;4.286;2022-09-16T06:51:13;14.60;99.90
22738;DHT22;11536;50.860;4.286;2022-09-16T06:53:39;14.60;99.90
22738;DHT22;11536;50.860;4.286;2022-09-16T06:56:10;14.60;99.90
22738;DHT22;11536;50.860;4.286;2022-09-16T06:58:37;14.50;99.90
22738;DHT22;11536;50.860;4.286;2022-09-16T07:01:18;14.50;99.90
22738;DHT22;11536;50.860;4.286;2022-09-16T07:03:46;14.50;99.90
22738;DHT22;11536;50.860;4.286;2022-09-16T07:06:13;14.50;99.90
22738;DHT22;11536;50.860;4.286;2022-09-16T07:08:40;14.50;99.90
22738;DHT22;11536;50.860;4.286;2022-09-16T07:11:17;14.50;99.90
22738;DHT22;11536;50.860;4.286;2022-09-16T07:13:44;14.50;99.90
22738;DHT22;11536;50.860;4.286;2022-09-16T07:16:13;14.60;99.90
22738;DHT22;11536;50.860;4.286;2022-09-16T07:18:40;14.60;99.90
22738;DHT22;11536;50.860;4.286;2022-09-16T07:21:09;14.50;99.90
22738;DHT22;11536;50.860;4.286;2022-09-16T07:23:37;14.50;99.90
22738;DHT22;11536;50.860;4.286;2022-09-16T07:26:06;14.50;99.90
22738;DHT22;11536;50.860;4.286;2022-09-16T07:28:32;14.50;99.90
22738;DHT22;11536;50.860;4.286;2022-09-16T07:31:03;14.50;99.90
22738;DHT22;11536;50.860;4.286;2022-09-16T07:33:29;14.50;99.90
22738;DHT22;11536;50.860;4.286;2022-09-16T07:35:58;14.50;99.90
22738;DHT22;11536;50.860;4.286;2022-09-16T07:38:24;14.50;99.90
22738;DHT22;11536;50.860;4.286;2022-09-16T07:40:49;14.50;99.90
22738;DHT22;11536;50.860;4.286;2022-09-16T07:43:15;14.50;99.90
22738;DHT22;11536;50.860;4.286;2022-09-16T07:45:40;14.50;99.90
22738;DHT22;11536;50.860;4.286;2022-09-16T07:48:06;14.50;99.90
22738;DHT22;11536;50.860;4.286;2022-09-16T07:50:32;14.50;99.90
22738;DHT22;11536;50.860;4.286;2022-09-16T07:52:57;14.60;99.90
22738;DHT22;11536;50.860;4.286;2022-09-16T07:55:23;14.60;99.90
22738;DHT22;11536;50.860;4.286;2022-09-16T07:57:48;14.60;99.90
22738;DHT22;11536;50.860;4.286;2022-09-16T08:00:14;14.60;99.90
22738;DHT22;11536;50.860;4.286;2022-09-16T08:02:41;14.60;99.90
22738;DHT22;11536;50.860;4.286;2022-09-16T08:05:07;14.70;99.90
22738;DHT22;11536;50.860;4.286;2022-09-16T08:07:34;14.60;99.90
22738;DHT22;11536;50.860;4.286;2022-09-16T08:09:59;14.60;99.90
22738;DHT22;11536;50.860;4.286;2022-09-16T08:12:25;14.60;99.90
22738;DHT22;11536;50.860;4.286;2022-09-16T08:14:51;14.60;99.90
22738;DHT22;11536;50.860;4.286;2022-09-16T08:17:16;14.60;99.90
22738;DHT22;11536;50.860;4.286;2022-09-16T08:19:42;14.70;99.90
22738;DHT22;11536;50.860;4.286;2022-09-16T08:22:07;14.70;99.90
22738;DHT22;11536;50.860;4.286;2022-09-16T08:24:33;14.80;99.90
22738;DHT22;11536;50.860;4.286;2022-09-16T08:26:58;14.80;99.90
22738;DHT22;11536;50.860;4.286;2022-09-16T08:29:24;14.80;99.90
22738;DHT22;11536;50.860;4.286;2022-09-16T08:31:50;14.80;99.90
22738;DHT22;11536;50.860;4.286;2022-09-16T08:34:16;14.70;99.90
22738;DHT22;11536;50.860;4.286;2022-09-16T08:36:42;14.80;99.90
22738;DHT22;11536;50.860;4.286;2022-09-16T08:39:09;14.80;99.90
22738;DHT22;11536;50.860;4.286;2022-09-16T08:46:56;14.70;99.90
22738;DHT22;11536;50.860;4.286;2022-09-16T08:49:34;14.70;99.90
22738;DHT22;11536;50.860;4.286;2022-09-16T08:52:07;14.60;99.90
22738;DHT22;11536;50.860;4.286;2022-09-16T08:57:22;14.50;99.90
22738;DHT22;11536;50.860;4.286;2022-09-16T08:59:58;14.50;99.90
22738;DHT22;11536;50.860;4.286;2022-09-16T09:02:55;14.40;99.90
22738;DHT22;11536;50.860;4.286;2022-09-16T09:10:42;14.40;99.90
22738;DHT22;11536;50.860;4.286;2022-09-16T09:25:00;14.50;99.90
22738;DHT22;11536;50.860;4.286;2022-09-16T09:30:16;14.50;99.90
22738;DHT22;11536;50.860;4.286;2022-09-16T09:41:44;14.50;99.90
22738;DHT22;11536;50.860;4.286;2022-09-16T09:47:26;14.50;99.90
22738;DHT22;11536;50.860;4.286;2022-09-16T09:49:56;14.60;99.90
22738;DHT22;11536;50.860;4.286;2022-09-16T09:52:33;14.60;99.90
22738;DHT22;11536;50.860;4.286;2022-09-16T09:55:18;14.60;99.90
22738;DHT22;11536;50.860;4.286;2022-09-16T09:58:05;14.70;99.90
22738;DHT22;11536;50.860;4.286;2022-09-16T10:00:34;14.80;99.90
22738;DHT22;11536;50.860;4.286;2022-09-16T10:03:14;14.90;99.90
22738;DHT22;11536;50.860;4.286;2022-09-16T10:05:42;15.00;99.90
22738;DHT22;11536;50.860;4.286;2022-09-16T10:10:45;15.00;99.90
22738;DHT22;11536;50.860;4.286;2022-09-16T10:13:11;15.10;99.90
22738;DHT22;11536;50.860;4.286;2022-09-16T10:15:38;15.10;99.90
22738;DHT22;11536;50.860;4.286;2022-09-16T10:18:18;15.10;99.90
22738;DHT22;11536;50.860;4.286;2022-09-16T10:20:58;15.20;99.90
22738;DHT22;11536;50.860;4.286;2022-09-16T10:23:25;15.20;99.90
22738;DHT22;11536;50.860;4.286;2022-09-16T10:26:03;15.20;99.90
22738;DHT22;11536;50.860;4.286;2022-09-16T10:28:29;15.20;99.90
22738;DHT22;11536;50.860;4.286;2022-09-16T10:30:57;15.10;99.90
22738;DHT22;11536;50.860;4.286;2022-09-16T10:33:26;15.00;99.90
22738;DHT22;11536;50.860;4.286;2022-09-16T10:35:59;14.90;99.90
22738;DHT22;11536;50.860;4.286;2022-09-16T10:38:51;14.80;99.90
22738;DHT22;11536;50.860;4.286;2022-09-16T10:41:23;14.70;99.90
22738;DHT22;11536;50.860;4.286;2022-09-16T10:44:05;14.80;99.90
22738;DHT22;11536;50.860;4.286;2022-09-16T10:46:32;14.80;99.90
22738;DHT22;11536;50.860;4.286;2022-09-16T10:49:08;14.80;99.90
22738;DHT22;11536;50.860;4.286;2022-09-16T10:51:34;14.80;99.90
22738;DHT22;11536;50.860;4.286;2022-09-16T10:54:02;14.80;99.90
22738;DHT22;11536;50.860;4.286;2022-09-16T10:56:32;14.80;99.90
22738;DHT22;11536;50.860;4.286;2022-09-16T11:15:03;15.00;99.90
22738;DHT22;11536;50.860;4.286;2022-09-16T11:28:35;15.00;99.90
22738;DHT22;11536;50.860;4.286;2022-09-16T11:37:27;14.80;99.90
22738;DHT22;11536;50.860;4.286;2022-09-16T11:48:14;14.50;99.90
22738;DHT22;11536;50.860;4.286;2022-09-16T11:50:44;14.40;99.90
22738;DHT22;11536;50.860;4.286;2022-09-16T11:55:54;14.40;99.90
22738;DHT22;11536;50.860;4.286;2022-09-16T11:58:38;14.40;99.90
22738;DHT22;11536;50.860;4.286;2022-09-16T12:03:57;14.20;99.90
22738;DHT22;11536;50.860;4.286;2022-09-16T12:06:28;14.20;99.90
22738;DHT22;11536;50.860;4.286;2022-09-16T12:09:03;14.20;99.90
22738;DHT22;11536;50.860;4.286;2022-09-16T12:11:31;14.20;99.90
22738;DHT22;11536;50.860;4.286;2022-09-16T12:14:21;14.20;99.90
22738;DHT22;11536;50.860;4.286;2022-09-16T12:19:52;14.00;99.90
22738;DHT22;11536;50.860;4.286;2022-09-16T12:24:54;14.00;99.90
22738;DHT22;11536;50.860;4.286;2022-09-16T12:27:37;14.10;99.90
22738;DHT22;11536;50.860;4.286;2022-09-16T12:30:29;14.10;99.90
22738;DHT22;11536;50.860;4.286;2022-09-16T12:35:29;14.30;99.90
22738;DHT22;11536;50.860;4.286;2022-09-16T12:37:56;14.40;99.90
22738;DHT22;11536;50.860;4.286;2022-09-16T12:40:26;14.40;99.90
22738;DHT22;11536;50.860;4.286;2022-09-16T12:48:30;14.50;99.90
22738;DHT22;11536;50.860;4.286;2022-09-16T12:53:48;14.60;99.90
22738;DHT22;11536;50.860;4.286;2022-09-16T12:56:39;14.60;99.90
22738;DHT22;11536;50.860;4.286;2022-09-16T12:59:38;14.70;99.90
22738;DHT22;11536;50.860;4.286;2022-09-16T13:02:14;14.70;99.90
22738;DHT22;11536;50.860;4.286;2022-09-16T13:04:44;14.70;99.90
22738;DHT22;11536;50.860;4.286;2022-09-16T13:07:37;14.70;99.90
22738;DHT22;11536;50.860;4.286;2022-09-16T13:10:33;14.70;99.90
22738;DHT22;11536;50.860;4.286;2022-09-16T13:13:00;14.80;99.90
22738;DHT22;11536;50.860;4.286;2022-09-16T13:15:37;14.80;99.90
22738;DHT22;11536;50.860;4.286;2022-09-16T13:20:56;14.90;99.90
22738;DHT22;11536;50.860;4.286;2022-09-16T13:23:26;14.90;99.90
22738;DHT22;11536;50.860;4.286;2022-09-16T13:26:05;15.10;99.90
22738;DHT22;11536;50.860;4.286;2022-09-16T13:33:36;15.30;99.90
22738;DHT22;11536;50.860;4.286;2022-09-16T13:39:05;15.10;99.90
22738;DHT22;11536;50.860;4.286;2022-09-16T13:41:36;14.90;99.90
22738;DHT22;11536;50.860;4.286;2022-09-16T13:44:29;14.80;99.90
22738;DHT22;11536;50.860;4.286;2022-09-16T13:52:20;14.40;99.90
22738;DHT22;11536;50.860;4.286;2022-09-16T13:54:49;14.30;99.90
22738;DHT22;11536;50.860;4.286;2022-09-16T13:57:45;14.30;99.90
22738;DHT22;11536;50.860;4.286;2022-09-16T14:00:21;14.30;99.90
22738;DHT22;11536;50.860;4.286;2022-09-16T14:11:14;14.40;99.90
22738;DHT22;11536;50.860;4.286;2022-09-16T14:13:48;14.50;99.90
22738;DHT22;11536;50.860;4.286;2022-09-16T14:16:20;14.50;99.90
22738;DHT22;11536;50.860;4.286;2022-09-16T14:19:02;14.60;99.90
22738;DHT22;11536;50.860;4.286;2022-09-16T14:21:29;14.60;99.90
22738;DHT22;11536;50.860;4.286;2022-09-16T14:24:18;14.70;99.90
22738;DHT22;11536;50.860;4.286;2022-09-16T14:26:52;14.80;99.90
22738;DHT22;11536;50.860;4.286;2022-09-16T14:29:18;14.80;99.90
22738;DHT22;11536;50.860;4.286;2022-09-16T14:31:43;14.80;99.90
22738;DHT22;11536;50.860;4.286;2022-09-16T14:34:13;14.80;99.90
22738;DHT22;11536;50.860;4.286;2022-09-16T14:36:40;14.70;99.90
22738;DHT22;11536;50.860;4.286;2022-09-16T14:39:13;14.70;99.90
22738;DHT22;11536;50.860;4.286;2022-09-16T14:41:50;14.60;99.90
22738;DHT22;11536;50.860;4.286;2022-09-16T14:46:49;14.50;99.90
22738;DHT22;11536;50.860;4.286;2022-09-16T14:49:16;14.50;99.90
22738;DHT22;11536;50.860;4.286;2022-09-16T14:51:46;14.40;99.90
22738;DHT22;11536;50.860;4.286;2022-09-16T14:54:17;14.40;99.90
22738;DHT22;11536;50.860;4.286;2022-09-16T14:56:54;14.40;99.90
22738;DHT22;11536;50.860;4.286;2022-09-16T14:59:23;14.50;99.90
22738;DHT22;11536;50.860;4.286;2022-09-16T15:01:50;14.50;99.90
22738;DHT22;11536;50.860;4.286;2022-09-16T15:04:23;14.50;99.90
22738;DHT22;11536;50.860;4.286;2022-09-16T15:06:53;14.40;99.90
22738;DHT22;11536;50.860;4.286;2022-09-16T15:09:26;14.40;99.90
22738;DHT22;11536;50.860;4.286;2022-09-16T15:11:56;14.40;99.90
22738;DHT22;11536;50.860;4.286;2022-09-16T15:14:24;14.50;99.90
22738;DHT22;11536;50.860;4.286;2022-09-16T15:16:57;14.50;99.90
22738;DHT22;11536;50.860;4.286;2022-09-16T15:19:34;14.50;99.90
22738;DHT22;11536;50.860;4.286;2022-09-16T15:22:01;14.50;99.90
22738;DHT22;11536;50.860;4.286;2022-09-16T15:24:30;14.50;99.90
22738;DHT22;11536;50.860;4.286;2022-09-16T15:26:57;14.50;99.90
22738;DHT22;11536;50.860;4.286;2022-09-16T15:31:49;14.40;99.90
22738;DHT22;11536;50.860;4.286;2022-09-16T15:42:17;14.50;99.90
22738;DHT22;11536;50.860;4.286;2022-09-16T15:44:49;14.60;99.90
22738;DHT22;11536;50.860;4.286;2022-09-16T15:47:33;14.60;99.90
22738;DHT22;11536;50.860;4.286;2022-09-16T15:50:08;14.50;99.90
22738;DHT22;11536;50.860;4.286;2022-09-16T15:53:02;14.50;99.90
22738;DHT22;11536;50.860;4.286;2022-09-16T15:55:37;14.60;99.90
22738;DHT22;11536;50.860;4.286;2022-09-16T16:00:58;14.60;99.90
22738;DHT22;11536;50.860;4.286;2022-09-16T16:03:25;14.60;99.90
22738;DHT22;11536;50.860;4.286;2022-09-16T16:05:52;14.50;99.90
22738;DHT22;11536;50.860;4.286;2022-09-16T16:11:13;14.60;99.90
22738;DHT22;11536;50.860;4.286;2022-09-16T16:13:40;14.60;99.90
22738;DHT22;11536;50.860;4.286;2022-09-16T16:16:10;14.50;99.90
22738;DHT22;11536;50.860;4.286;2022-09-16T16:18:38;14.50;99.90
22738;DHT22;11536;50.860;4.286;2022-09-16T16:21:08;14.50;99.90
22738;DHT22;11536;50.860;4.286;2022-09-16T16:23:35;14.50;99.90
22738;DHT22;11536;50.860;4.286;2022-09-16T16:26:02;14.40;99.90
22738;DHT22;11536;50.860;4.286;2022-09-16T16:28:28;14.50;99.90
22738;DHT22;11536;50.860;4.286;2022-09-16T16:31:15;14.40;99.90
22738;DHT22;11536;50.860;4.286;2022-09-16T16:33:43;14.40;99.90
22738;DHT22;11536;50.860;4.286;2022-09-16T16:36:10;14.40;99.90
22738;DHT22;11536;50.860;4.286;2022-09-16T16:38:36;14.30;99.90
22738;DHT22;11536;50.860;4.286;2022-09-16T16:41:01;14.30;99.90
22738;DHT22;11536;50.860;4.286;2022-09-16T16:43:28;14.30;99.90
22738;DHT22;11536;50.860;4.286;2022-09-16T16:45:55;14.20;99.90
22738;DHT22;11536;50.860;4.286;2022-09-16T16:48:21;14.20;99.90
22738;DHT22;11536;50.860;4.286;2022-09-16T16:50:58;14.10;99.90
22738;DHT22;11536;50.860;4.286;2022-09-16T16:53:24;14.00;99.90
22738;DHT22;11536;50.860;4.286;2022-09-16T16:55:51;14.00;99.90
22738;DHT22;11536;50.860;4.286;2022-09-16T16:58:17;14.00;99.90
22738;DHT22;11536;50.860;4.286;2022-09-16T17:00:42;13.90;99.90
22738;DHT22;11536;50.860;4.286;2022-09-16T17:03:08;13.90;99.90
22738;DHT22;11536;50.860;4.286;2022-09-16T17:05:37;13.80;99.90
22738;DHT22;11536;50.860;4.286;2022-09-16T17:08:04;13.80;99.90
22738;DHT22;11536;50.860;4.286;2022-09-16T17:10:32;13.80;99.90
22738;DHT22;11536;50.860;4.286;2022-09-16T17:12:58;13.70;99.90
22738;DHT22;11536;50.860;4.286;2022-09-16T17:15:24;13.70;99.90
22738;DHT22;11536;50.860;4.286;2022-09-16T17:17:50;13.60;99.90
22738;DHT22;11536;50.860;4.286;2022-09-16T17:20:15;13.70;99.90
22738;DHT22;11536;50.860;4.286;2022-09-16T17:22:41;13.60;99.90
22738;DHT22;11536;50.860;4.286;2022-09-16T17:25:07;13.60;99.90
22738;DHT22;11536;50.860;4.286;2022-09-16T17:27:33;13.70;99.90
22738;DHT22;11536;50.860;4.286;2022-09-16T17:29:58;13.70;99.90
22738;DHT22;11536;50.860;4.286;2022-09-16T17:32:26;13.70;99.90
22738;DHT22;11536;50.860;4.286;2022-09-16T17:34:52;13.70;99.90
22738;DHT22;11536;50.860;4.286;2022-09-16T17:37:18;13.60;99.90
22738;DHT22;11536;50.860;4.286;2022-09-16T17:39:44;13.60;99.90
22738;DHT22;11536;50.860;4.286;2022-09-16T17:42:10;13.70;99.90
22738;DHT22;11536;50.860;4.286;2022-09-16T17:44:36;13.70;99.90
22738;DHT22;11536;50.860;4.286;2022-09-16T17:47:02;13.60;99.90
22738;DHT22;11536;50.860;4.286;2022-09-16T17:49:28;13.60;99.90
22738;DHT22;11536;50.860;4.286;2022-09-16T17:51:53;13.60;99.90
22738;DHT22;11536;50.860;4.286;2022-09-16T17:54:19;13.60;99.90
22738;DHT22;11536;50.860;4.286;2022-09-16T17:56:48;13.60;99.90
22738;DHT22;11536;50.860;4.286;2022-09-16T17:59:17;13.60;99.90
22738;DHT22;11536;50.860;4.286;2022-09-16T18:01:44;13.50;99.90
22738;DHT22;11536;50.860;4.286;2022-09-16T18:04:10;13.50;99.90
22738;DHT22;11536;50.860;4.286;2022-09-16T18:06:41;13.50;99.90
22738;DHT22;11536;50.860;4.286;2022-09-16T18:09:07;13.50;99.90
22738;DHT22;11536;50.860;4.286;2022-09-16T18:11:33;13.50;99.90
22738;DHT22;11536;50.860;4.286;2022-09-16T18:14:01;13.50;99.90
22738;DHT22;11536;50.860;4.286;2022-09-16T18:16:28;13.50;99.90
22738;DHT22;11536;50.860;4.286;2022-09-16T18:18:56;13.50;99.90
22738;DHT22;11536;50.860;4.286;2022-09-16T18:21:23;13.50;99.90
22738;DHT22;11536;50.860;4.286;2022-09-16T18:24:00;13.50;99.90
22738;DHT22;11536;50.860;4.286;2022-09-16T18:26:27;13.50;99.90
22738;DHT22;11536;50.860;4.286;2022-09-16T18:28:53;13.40;99.90
22738;DHT22;11536;50.860;4.286;2022-09-16T18:31:21;13.50;99.90
22738;DHT22;11536;50.860;4.286;2022-09-16T18:33:50;13.40;99.90
22738;DHT22;11536;50.860;4.286;2022-09-16T18:36:16;13.40;99.90
22738;DHT22;11536;50.860;4.286;2022-09-16T18:38:42;13.30;99.90
22738;DHT22;11536;50.860;4.286;2022-09-16T18:41:17;13.30;99.90
22738;DHT22;11536;50.860;4.286;2022-09-16T18:43:44;13.30;99.90
22738;DHT22;11536;50.860;4.286;2022-09-16T18:46:20;13.30;99.90
22738;DHT22;11536;50.860;4.286;2022-09-16T18:48:48;13.20;99.90
22738;DHT22;11536;50.860;4.286;2022-09-16T18:53:50;13.20;99.90
22738;DHT22;11536;50.860;4.286;2022-09-16T18:56:19;13.20;99.90
22738;DHT22;11536;50.860;4.286;2022-09-16T18:58:48;13.20;99.90
22738;DHT22;11536;50.860;4.286;2022-09-16T19:01:27;13.20;99.90
22738;DHT22;11536;50.860;4.286;2022-09-16T19:03:55;13.20;99.90